Time;durP1;ratioP1;P1;durP2;ratioP2;P2;SDS_P1;SDS_P2;PMS_P1;PMS_P2;Temp;Humidity;BMP_temperature;BMP_pressure;BME280_temperature;BME280_humidity;BME280_pressure;Samples;Min_cycle;Max_cycle;Signal;HPM_P1;HPM_P2
2023/04/10 00:05:14;;;;;;;32.35;18.42;;;7.20;99.90;;;;;;12531339;28;20068;-82
2023/04/10 00:11:16;;;;;;;26.27;15.80;;;7.60;99.90;;;;;;12545063;28;20118;-82
2023/04/10 00:17:18;;;;;;;28.00;17.17;;;8.00;99.90;;;;;;12542880;28;20045;-81
2023/04/10 00:23:20;;;;;;;26.75;16.83;;;8.20;99.90;;;;;;12545097;28;20038;-81
2023/04/10 00:29:22;;;;;;;26.65;16.00;;;8.30;99.90;;;;;;12541900;28;20053;-82
2023/04/10 00:35:24;;;;;;;27.42;16.00;;;8.40;99.90;;;;;;12549091;28;20063;-81
2023/04/10 00:41:28;;;;;;;23.58;14.38;;;8.30;99.90;;;;;;12542105;28;20058;-81
2023/04/10 00:47:30;;;;;;;27.17;16.17;;;8.30;99.90;;;;;;12556354;28;20040;-82
2023/04/10 00:53:32;;;;;;;25.20;15.60;;;8.30;99.90;;;;;;12529043;28;20053;-82
2023/04/10 00:59:34;;;;;;;26.23;15.70;;;8.40;99.90;;;;;;12540389;28;20033;-82
2023/04/10 01:06:05;;;;;;;23.73;14.60;;;8.30;99.90;;;;;;12527691;28;20054;-82
2023/04/10 01:12:30;;;;;;;24.30;14.95;;;8.30;99.90;;;;;;12538163;28;20062;-83
2023/04/10 01:18:47;;;;;;;24.40;14.43;;;8.30;99.90;;;;;;12538977;28;20038;-82
2023/04/10 01:25:16;;;;;;;22.77;13.93;;;8.30;99.90;;;;;;12539482;28;20053;-83
2023/04/10 01:31:39;;;;;;;24.15;14.00;;;8.40;99.90;;;;;;12540701;28;20088;-83
2023/04/10 01:37:45;;;;;;;23.15;14.43;;;8.30;99.90;;;;;;12524683;28;20076;-81
2023/04/10 01:43:49;;;;;;;26.58;14.07;;;8.30;99.90;;;;;;12533891;28;20049;-82
2023/04/10 01:49:54;;;;;;;20.38;13.13;;;8.30;99.90;;;;;;12535847;28;20057;-81
2023/04/10 01:55:57;;;;;;;20.77;13.30;;;8.30;99.90;;;;;;12536377;28;20127;-83
2023/04/10 02:02:00;;;;;;;21.23;12.82;;;8.40;99.90;;;;;;12533335;28;20053;-82
2023/04/10 02:08:14;;;;;;;20.10;13.07;;;8.30;99.90;;;;;;12524332;28;20073;-82
2023/04/10 02:14:19;;;;;;;21.65;13.27;;;8.30;99.90;;;;;;12537440;28;20060;-81
2023/04/10 02:20:25;;;;;;;19.13;13.15;;;8.30;99.90;;;;;;12538055;28;20041;-82
2023/04/10 02:26:27;;;;;;;21.90;13.40;;;8.20;99.90;;;;;;12531989;28;20042;-82
2023/04/10 02:32:32;;;;;;;20.50;12.65;;;8.20;99.90;;;;;;12531384;28;20075;-83
2023/04/10 02:38:34;;;;;;;19.63;13.05;;;8.20;99.90;;;;;;12525920;28;20076;-81
2023/04/10 02:44:38;;;;;;;20.48;12.88;;;8.30;99.90;;;;;;12526132;28;20044;-82
2023/04/10 02:50:44;;;;;;;18.77;12.57;;;8.20;99.90;;;;;;12524363;28;20049;-81
2023/04/10 02:56:46;;;;;;;26.23;12.68;;;8.20;99.90;;;;;;12528651;28;20053;-82
2023/04/10 03:02:50;;;;;;;17.98;12.02;;;8.20;99.90;;;;;;12538112;28;20281;-82
2023/04/10 03:08:52;;;;;;;19.08;12.23;;;8.20;99.90;;;;;;12530720;28;20113;-83
2023/04/10 03:14:54;;;;;;;20.50;12.50;;;8.10;99.90;;;;;;12543228;28;20052;-82
2023/04/10 03:20:56;;;;;;;21.05;12.40;;;8.20;99.90;;;;;;12534076;28;20041;-82
2023/04/10 03:26:58;;;;;;;20.42;13.25;;;8.20;99.90;;;;;;12500324;28;20072;-82
2023/04/10 03:33:02;;;;;;;;;;;8.10;99.90;;;;;;12518818;28;20053;-84
2023/04/10 03:39:04;;;;;;;20.15;12.48;;;8.10;99.90;;;;;;12508200;28;19928;-83
2023/04/10 03:45:09;;;;;;;21.02;12.55;;;8.10;99.90;;;;;;12509888;28;20054;-83
2023/04/10 03:51:11;;;;;;;19.33;11.73;;;8.10;99.90;;;;;;12544150;28;20045;-83
2023/04/10 03:57:13;;;;;;;19.33;12.40;;;8.00;99.90;;;;;;12543360;28;20029;-83
2023/04/10 04:03:15;;;;;;;18.63;11.90;;;8.00;99.90;;;;;;12535192;28;20033;-83
2023/04/10 04:09:18;;;;;;;18.88;12.00;;;8.00;99.90;;;;;;12533195;28;20053;-82
2023/04/10 04:15:22;;;;;;;19.73;12.27;;;8.00;99.90;;;;;;12536079;28;20433;-82
2023/04/10 04:21:28;;;;;;;17.08;11.15;;;8.00;99.90;;;;;;12514405;28;20688;-83
2023/04/10 04:27:33;;;;;;;18.48;11.38;;;8.00;99.90;;;;;;12516929;28;20042;-82
2023/04/10 04:33:35;;;;;;;17.67;11.15;;;8.00;99.90;;;;;;12545328;28;20041;-82
2023/04/10 04:39:37;;;;;;;20.38;11.35;;;8.00;99.90;;;;;;12521612;28;20042;-82
2023/04/10 04:45:39;;;;;;;17.98;11.18;;;8.00;99.90;;;;;;12538746;28;20050;-83
2023/04/10 04:51:41;;;;;;;17.75;11.25;;;8.00;99.90;;;;;;12544783;28;20037;-83
2023/04/10 04:57:43;;;;;;;16.45;10.23;;;8.00;99.90;;;;;;12522027;28;20061;-82
2023/04/10 05:03:45;;;;;;;17.27;11.45;;;8.10;99.90;;;;;;12524067;28;20077;-82
2023/04/10 05:09:47;;;;;;;14.93;9.70;;;8.40;99.90;;;;;;12513308;28;20064;-81
2023/04/10 05:15:49;;;;;;;17.67;10.57;;;8.60;99.90;;;;;;12546216;28;20046;-83
2023/04/10 05:21:51;;;;;;;16.05;10.25;;;8.90;99.90;;;;;;12522387;28;20049;-82
2023/04/10 05:27:53;;;;;;;15.70;10.27;;;9.20;99.90;;;;;;12507317;28;20070;-83
2023/04/10 05:33:58;;;;;;;15.38;9.65;;;8.90;99.90;;;;;;12514076;28;20042;-82
2023/04/10 05:40:01;;;;;;;14.77;9.88;;;9.00;99.90;;;;;;12533130;28;20049;-82
2023/04/10 05:46:04;;;;;;;14.27;9.23;;;9.10;99.90;;;;;;12532749;28;20046;-82
2023/04/10 05:52:07;;;;;;;13.25;9.30;;;8.90;99.90;;;;;;12532629;28;20088;-82
2023/04/10 05:58:09;;;;;;;14.73;9.73;;;8.90;99.90;;;;;;12524970;28;20049;-82
2023/04/10 06:04:11;;;;;;;13.25;8.73;;;9.10;99.90;;;;;;12517391;28;20050;-83
2023/04/10 06:10:16;;;;;;;16.42;9.60;;;9.30;99.90;;;;;;12520649;28;20112;-82
2023/04/10 06:16:17;;;;;;;15.48;10.00;;;9.40;99.90;;;;;;12528549;28;20057;-83
2023/04/10 06:22:20;;;;;;;14.43;9.57;;;9.60;99.90;;;;;;12519774;28;20069;-82
2023/04/10 06:28:23;;;;;;;15.90;9.70;;;9.90;99.90;;;;;;12542995;28;20025;-83
2023/04/10 06:34:25;;;;;;;13.38;9.02;;;9.90;99.90;;;;;;12524023;28;20055;-81
2023/04/10 06:40:28;;;;;;;13.90;9.75;;;10.10;99.90;;;;;;12534123;28;20046;-83
2023/04/10 06:46:31;;;;;;;14.77;9.38;;;9.90;99.90;;;;;;12511100;28;20048;-83
2023/04/10 06:52:32;;;;;;;13.20;9.07;;;10.00;99.90;;;;;;12531163;28;20034;-82
2023/04/10 06:58:34;;;;;;;13.75;9.10;;;10.00;99.90;;;;;;12541539;28;20077;-83
2023/04/10 07:04:36;;;;;;;13.63;9.57;;;10.10;99.90;;;;;;12532949;28;20045;-83
2023/04/10 07:10:38;;;;;;;15.77;9.07;;;10.10;99.90;;;;;;12549119;28;20065;-82
2023/04/10 07:16:40;;;;;;;17.10;9.73;;;10.50;99.90;;;;;;12539510;28;20033;-83
2023/04/10 07:22:42;;;;;;;14.38;9.32;;;10.40;99.90;;;;;;12536356;28;20034;-81
2023/04/10 07:28:44;;;;;;;12.35;8.70;;;10.50;99.90;;;;;;12516396;28;20050;-82
2023/04/10 07:34:47;;;;;;;13.15;9.05;;;10.80;99.90;;;;;;12522497;28;20052;-83
2023/04/10 07:40:55;;;;;;;14.07;8.88;;;10.90;99.90;;;;;;12516239;28;20057;-81
2023/04/10 07:46:57;;;;;;;13.65;9.50;;;10.90;99.90;;;;;;12516515;28;20037;-82
2023/04/10 07:53:06;;;;;;;14.90;9.63;;;11.10;99.90;;;;;;12519394;28;20437;-82
2023/04/10 07:59:09;;;;;;;14.95;9.65;;;11.20;99.90;;;;;;12507717;28;20049;-80
2023/04/10 08:05:11;;;;;;;15.68;10.68;;;11.50;99.90;;;;;;12511421;28;20042;-82
2023/04/10 08:11:29;;;;;;;15.07;11.73;;;11.50;99.90;;;;;;12512228;28;20051;-81
2023/04/10 08:17:31;;;;;;;15.05;9.90;;;11.70;99.90;;;;;;12527212;28;20044;-82
2023/04/10 08:23:34;;;;;;;14.87;10.33;;;12.00;99.90;;;;;;12519067;28;20046;-83
2023/04/10 08:29:36;;;;;;;13.00;9.77;;;12.00;99.90;;;;;;12507884;28;20050;-82
2023/04/10 08:35:38;;;;;;;13.38;9.80;;;12.20;99.90;;;;;;12536157;28;20073;-82
2023/04/10 08:41:40;;;;;;;14.27;10.30;;;12.40;99.90;;;;;;12537326;28;20072;-82
2023/04/10 08:47:44;;;;;;;14.85;9.63;;;12.70;99.90;;;;;;12538620;28;20049;-83
2023/04/10 08:53:49;;;;;;;;;;;12.80;99.90;;;;;;12521464;28;20034;-83
2023/04/10 08:59:51;;;;;;;13.77;9.68;;;13.00;99.90;;;;;;12537622;28;19922;-83
2023/04/10 09:05:55;;;;;;;13.13;9.80;;;13.10;99.90;;;;;;12509905;28;20049;-83
2023/04/10 09:11:59;;;;;;;12.77;8.70;;;13.70;99.90;;;;;;12505426;28;20053;-84
2023/04/10 09:18:03;;;;;;;13.27;8.90;;;13.90;99.90;;;;;;12493993;28;20053;-83
2023/04/10 09:24:05;;;;;;;10.88;8.88;;;14.20;99.90;;;;;;12523564;28;20042;-83
2023/04/10 09:30:07;;;;;;;10.95;7.68;;;14.30;99.90;;;;;;12488898;28;20042;-84
2023/04/10 09:36:12;;;;;;;11.80;8.70;;;14.30;99.90;;;;;;12469089;28;20109;-83
2023/04/10 09:42:14;;;;;;;12.43;9.02;;;14.60;99.90;;;;;;12516852;28;20060;-84
2023/04/10 09:48:17;;;;;;;11.90;8.40;;;14.90;99.90;;;;;;12532589;28;20045;-84
2023/04/10 09:54:36;;;;;;;11.93;8.95;;;14.80;99.90;;;;;;12504663;28;20417;-85
2023/04/10 10:00:46;;;;;;;13.32;8.95;;;15.10;99.90;;;;;;12489464;28;20053;-84
2023/04/10 10:06:48;;;;;;;11.05;8.23;;;15.20;99.90;;;;;;12503189;28;20053;-84
2023/04/10 10:12:59;;;;;;;11.32;8.90;;;15.00;99.90;;;;;;12499784;28;20052;-84
2023/04/10 10:19:16;;;;;;;11.70;8.77;;;15.50;99.90;;;;;;12504374;28;20069;-83
2023/04/10 10:25:20;;;;;;;10.13;7.30;;;15.90;99.90;;;;;;12495327;28;20106;-83
2023/04/10 10:31:23;;;;;;;8.83;6.67;;;16.10;99.90;;;;;;12477520;28;20054;-83
2023/04/10 10:37:28;;;;;;;12.50;7.05;;;16.10;99.90;;;;;;12477506;28;20053;-83
2023/04/10 10:43:45;;;;;;;9.13;6.57;;;16.50;99.90;;;;;;12491862;28;20510;-84
2023/04/10 10:50:05;;;;;;;10.30;7.28;;;15.90;99.90;;;;;;12511394;28;20045;-85
2023/04/10 10:56:21;;;;;;;9.18;6.70;;;15.50;99.90;;;;;;12496817;28;20045;-83
2023/04/10 11:02:23;;;;;;;9.65;6.88;;;16.00;99.90;;;;;;12498995;28;20239;-84
2023/04/10 11:08:35;;;;;;;8.38;6.35;;;16.40;99.90;;;;;;12503318;28;20078;-83
2023/04/10 11:14:39;;;;;;;9.63;6.22;;;16.60;99.90;;;;;;12503592;28;20066;-85
2023/04/10 11:21:15;;;;;;;10.20;6.15;;;16.00;99.90;;;;;;12500169;28;20080;-82
2023/04/10 11:27:43;;;;;;;9.00;6.20;;;16.20;99.90;;;;;;12517635;28;20117;-84
2023/04/10 11:33:56;;;;;;;6.82;5.03;;;16.40;99.90;;;;;;12507820;28;20049;-83
2023/04/10 11:40:05;;;;;;;7.53;5.70;;;16.40;99.90;;;;;;12501424;28;20056;-83
2023/04/10 11:46:07;;;;;;;7.97;5.50;;;16.50;99.90;;;;;;12497719;28;20056;-82
2023/04/10 11:52:09;;;;;;;7.05;5.40;;;16.30;99.90;;;;;;12500770;28;20503;-84
2023/04/10 11:58:25;;;;;;;8.52;5.65;;;16.20;99.90;;;;;;12496986;28;20144;-81
2023/04/10 12:04:28;;;;;;;8.02;5.90;;;16.20;99.90;;;;;;12501596;28;20068;-81
2023/04/10 12:10:44;;;;;;;8.50;6.03;;;16.10;99.90;;;;;;12527809;28;20041;-83
2023/04/10 12:16:47;;;;;;;8.00;5.82;;;16.20;99.90;;;;;;12500177;28;20041;-81
2023/04/10 12:22:49;;;;;;;7.43;5.43;;;16.40;99.90;;;;;;12504569;28;20079;-80
2023/04/10 12:28:56;;;;;;;6.88;5.32;;;16.60;99.90;;;;;;12508168;28;20045;-81
2023/04/10 12:35:01;;;;;;;8.00;5.40;;;16.50;99.90;;;;;;12502442;28;20525;-82
2023/04/10 12:41:03;;;;;;;7.35;5.20;;;16.90;99.90;;;;;;12513954;28;20049;-82
2023/04/10 12:47:05;;;;;;;5.70;3.83;;;17.30;99.90;;;;;;12508310;28;20050;-83
2023/04/10 12:53:08;;;;;;;5.63;4.18;;;16.90;99.90;;;;;;12502122;28;20115;-82
2023/04/10 12:59:11;;;;;;;5.13;3.63;;;17.20;99.90;;;;;;12506697;28;20064;-82
2023/04/10 13:05:14;;;;;;;5.68;4.20;;;17.20;99.90;;;;;;12496749;28;20097;-83
2023/04/10 13:11:17;;;;;;;6.80;3.58;;;17.10;99.90;;;;;;12489560;28;20135;-82
2023/04/10 13:17:20;;;;;;;5.07;3.85;;;17.30;99.90;;;;;;12496266;28;20077;-83
2023/04/10 13:23:22;;;;;;;5.57;4.07;;;17.40;99.90;;;;;;12510646;28;20060;-81
2023/04/10 13:29:24;;;;;;;6.78;3.80;;;17.70;99.90;;;;;;12499413;28;20049;-84
2023/04/10 13:35:26;;;;;;;4.57;3.63;;;17.50;99.90;;;;;;12481051;28;20092;-84
2023/04/10 13:41:28;;;;;;;6.20;4.20;;;17.20;99.90;;;;;;12503527;28;20401;-82
2023/04/10 13:47:31;;;;;;;5.63;4.07;;;17.00;99.90;;;;;;12493789;28;20124;-82
2023/04/10 13:53:33;;;;;;;6.22;4.00;;;17.20;99.90;;;;;;12494826;28;20048;-82
2023/04/10 13:59:35;;;;;;;5.18;3.60;;;17.60;99.90;;;;;;12488116;28;20057;-82
2023/04/10 14:05:39;;;;;;;6.47;3.30;;;17.00;99.90;;;;;;12495446;28;20131;-81
2023/04/10 14:11:41;;;;;;;4.18;2.85;;;17.00;99.90;;;;;;12491174;28;20053;-81
2023/04/10 14:17:43;;;;;;;3.50;2.25;;;17.00;99.90;;;;;;12504673;28;20081;-81
2023/04/10 14:23:46;;;;;;;3.33;1.83;;;17.10;99.90;;;;;;12498243;28;20045;-81
2023/04/10 14:29:49;;;;;;;4.80;1.83;;;17.30;99.90;;;;;;12506101;28;20054;-82
2023/04/10 14:35:55;;;;;;;2.40;1.63;;;17.30;99.90;;;;;;12477299;28;20045;-81
2023/04/10 14:42:01;;;;;;;2.90;1.80;;;17.40;99.90;;;;;;12501323;28;20524;-82
2023/04/10 14:48:03;;;;;;;2.10;1.35;;;17.20;99.90;;;;;;12496603;28;20487;-79
2023/04/10 14:54:07;;;;;;;2.88;1.63;;;17.30;99.90;;;;;;12479214;28;20512;-83
2023/04/10 15:00:09;;;;;;;2.38;1.40;;;17.40;99.90;;;;;;12485864;28;20049;-81
2023/04/10 15:06:11;;;;;;;2.85;1.60;;;18.10;99.90;;;;;;12471165;28;20046;-80
2023/04/10 15:12:13;;;;;;;3.90;1.30;;;17.80;99.90;;;;;;12475719;28;20125;-82
2023/04/10 15:18:15;;;;;;;2.63;1.55;;;17.40;99.90;;;;;;12507588;28;20461;-82
2023/04/10 15:24:17;;;;;;;3.20;1.98;;;16.90;99.90;;;;;;12483635;28;20042;-83
2023/04/10 15:30:19;;;;;;;3.25;1.90;;;16.70;99.90;;;;;;12497954;28;20057;-82
2023/04/10 15:36:21;;;;;;;2.70;1.60;;;16.60;99.90;;;;;;12469766;28;20053;-82
2023/04/10 15:42:24;;;;;;;3.55;1.80;;;16.60;99.90;;;;;;12489862;28;20564;-82
2023/04/10 15:48:26;;;;;;;3.15;1.80;;;16.40;99.90;;;;;;12494151;28;20046;-82
2023/04/10 15:54:28;;;;;;;2.88;1.80;;;16.40;99.90;;;;;;12486505;28;20050;-82
2023/04/10 16:00:30;;;;;;;3.28;2.10;;;16.20;99.90;;;;;;12495690;28;20436;-83
2023/04/10 16:06:33;;;;;;;3.22;1.92;;;16.20;99.90;;;;;;12487332;28;20056;-82
2023/04/10 16:12:35;;;;;;;3.45;2.10;;;16.10;99.90;;;;;;12485229;28;20045;-82
2023/04/10 16:18:37;;;;;;;3.53;1.75;;;16.10;99.90;;;;;;12474369;28;20609;-81
2023/04/10 16:24:39;;;;;;;2.75;1.80;;;16.00;99.90;;;;;;12485118;28;20069;-81
2023/04/10 16:30:41;;;;;;;3.10;1.90;;;16.00;99.90;;;;;;12499565;28;20140;-82
2023/04/10 16:36:43;;;;;;;4.50;2.00;;;16.00;99.90;;;;;;12510887;28;20068;-82
2023/04/10 16:42:45;;;;;;;4.03;1.90;;;15.90;99.90;;;;;;12507321;28;20341;-82
2023/04/10 16:48:47;;;;;;;7.18;2.15;;;15.90;99.90;;;;;;12522933;28;20060;-82
2023/04/10 16:54:53;;;;;;;2.88;1.85;;;15.70;99.90;;;;;;12528030;28;20061;-81
2023/04/10 17:00:55;;;;;;;2.80;1.70;;;15.60;99.90;;;;;;12517144;28;20046;-81
2023/04/10 17:06:57;;;;;;;3.10;1.80;;;15.60;99.90;;;;;;12533500;28;20053;-83
2023/04/10 17:12:59;;;;;;;3.15;1.75;;;15.50;99.90;;;;;;12517226;28;20053;-82
2023/04/10 17:19:01;;;;;;;2.72;1.75;;;15.50;99.90;;;;;;12529011;28;20081;-82
2023/04/10 17:25:04;;;;;;;2.92;1.58;;;15.40;99.90;;;;;;12530578;28;20045;-82
2023/04/10 17:31:12;;;;;;;2.65;1.80;;;15.40;99.90;;;;;;12529661;28;20066;-82
2023/04/10 17:37:14;;;;;;;2.78;1.70;;;15.40;99.90;;;;;;12521039;28;20060;-82
2023/04/10 17:43:30;;;;;;;3.47;1.90;;;15.30;99.90;;;;;;12529761;28;20152;-82
2023/04/10 17:49:31;;;;;;;3.50;1.80;;;15.10;99.90;;;;;;12521210;28;20100;-82
2023/04/10 17:55:38;;;;;;;3.40;2.10;;;15.20;99.90;;;;;;12521399;28;20060;-81
2023/04/10 18:01:44;;;;;;;4.22;2.05;;;15.10;99.90;;;;;;12519532;28;20049;-83
2023/04/10 18:07:46;;;;;;;3.28;2.08;;;15.10;99.90;;;;;;12521473;28;20059;-81
2023/04/10 18:13:53;;;;;;;2.90;1.85;;;15.00;99.90;;;;;;12516856;28;20068;-82
2023/04/10 18:19:56;;;;;;;2.92;1.80;;;14.90;99.90;;;;;;12519123;28;20045;-82
2023/04/10 18:25:58;;;;;;;3.17;1.83;;;14.90;99.90;;;;;;12529759;28;20057;-81
2023/04/10 18:32:00;;;;;;;2.90;1.88;;;14.90;99.90;;;;;;12515311;28;20073;-82
2023/04/10 18:38:05;;;;;;;4.85;1.98;;;14.90;99.90;;;;;;12526136;28;20046;-82
2023/04/10 18:44:08;;;;;;;3.33;2.00;;;14.90;99.90;;;;;;12531155;28;20045;-81
2023/04/10 18:50:14;;;;;;;3.53;1.75;;;14.80;99.90;;;;;;12525340;28;20038;-81
2023/04/10 18:56:16;;;;;;;3.38;2.17;;;14.70;99.90;;;;;;12524392;28;20057;-82
2023/04/10 19:02:19;;;;;;;3.83;1.85;;;14.70;99.90;;;;;;12521574;28;20049;-82
2023/04/10 19:08:21;;;;;;;3.30;2.00;;;14.60;99.90;;;;;;12507184;28;20065;-81
2023/04/10 19:14:22;;;;;;;3.50;2.00;;;14.60;99.90;;;;;;12526751;28;20080;-81
2023/04/10 19:20:24;;;;;;;3.08;1.90;;;14.50;99.90;;;;;;12534054;28;20101;-81
2023/04/10 19:26:47;;;;;;;2.97;1.90;;;14.50;99.90;;;;;;12527303;28;20038;-81
2023/04/10 19:32:49;;;;;;;3.40;2.10;;;14.50;99.90;;;;;;12525294;28;20064;-81
2023/04/10 19:38:55;;;;;;;3.00;1.88;;;14.40;99.90;;;;;;12519288;28;20061;-80
2023/04/10 19:44:58;;;;;;;4.57;1.90;;;14.30;99.90;;;;;;12504513;28;20046;-81
2023/04/10 19:51:04;;;;;;;4.03;1.90;;;14.20;99.90;;;;;;12503821;28;20049;-81
2023/04/10 19:57:06;;;;;;;3.63;1.83;;;14.30;99.90;;;;;;12503099;28;20080;-81
2023/04/10 20:03:08;;;;;;;4.38;2.00;;;14.10;99.90;;;;;;12497966;28;20041;-81
2023/04/10 20:09:13;;;;;;;5.82;2.10;;;14.10;99.90;;;;;;12506787;28;20062;-80
2023/04/10 20:15:16;;;;;;;4.97;2.47;;;13.40;99.90;;;;;;12513963;28;20053;-80
2023/04/10 20:21:20;;;;;;;4.60;2.38;;;12.40;99.90;;;;;;12527504;28;20061;-81
2023/04/10 20:27:23;;;;;;;5.65;2.53;;;11.30;99.90;;;;;;12498581;28;20083;-82
2023/04/10 20:33:26;;;;;;;4.03;2.42;;;10.80;99.90;;;;;;12535368;28;20049;-83
2023/04/10 20:39:28;;;;;;;6.18;2.60;;;10.60;99.90;;;;;;12518024;28;20083;-81
2023/04/10 20:45:30;;;;;;;5.38;3.00;;;10.50;99.90;;;;;;12516791;28;20041;-83
2023/04/10 20:51:35;;;;;;;5.43;2.97;;;10.50;99.90;;;;;;12518570;28;20065;-82
2023/04/10 20:57:38;;;;;;;7.50;3.20;;;10.40;99.90;;;;;;12515673;28;20073;-83
2023/04/10 21:03:41;;;;;;;5.22;3.22;;;10.50;99.90;;;;;;12522226;28;20062;-82
2023/04/10 21:09:43;;;;;;;6.25;2.80;;;10.40;99.90;;;;;;12523237;28;20054;-82
2023/04/10 21:15:47;;;;;;;6.75;2.80;;;10.40;99.90;;;;;;12525289;28;20046;-83
2023/04/10 21:21:48;;;;;;;8.43;3.03;;;10.40;99.90;;;;;;12509369;28;20052;-81
2023/04/10 21:27:50;;;;;;;4.75;2.78;;;10.40;99.90;;;;;;12505102;28;20050;-80
2023/04/10 21:33:52;;;;;;;6.18;2.63;;;10.50;99.90;;;;;;12495744;28;20119;-81
2023/04/10 21:39:54;;;;;;;6.15;3.28;;;10.70;99.90;;;;;;12503308;28;20045;-81
2023/04/10 21:45:56;;;;;;;7.07;3.20;;;10.80;99.90;;;;;;12519205;28;20038;-80
2023/04/10 21:51:58;;;;;;;5.93;3.38;;;10.40;99.90;;;;;;12511605;28;20034;-82
2023/04/10 21:58:00;;;;;;;6.72;3.47;;;10.20;99.90;;;;;;12527095;28;20049;-82
2023/04/10 22:04:02;;;;;;;6.32;3.35;;;10.10;99.90;;;;;;12510621;28;20076;-81
2023/04/10 22:10:05;;;;;;;5.82;3.58;;;10.00;99.90;;;;;;12509914;28;20051;-81
2023/04/10 22:16:07;;;;;;;5.57;3.15;;;10.00;99.90;;;;;;12480806;28;20045;-80
2023/04/10 22:22:09;;;;;;;6.35;3.05;;;10.10;99.90;;;;;;12483862;28;20050;-80
2023/04/10 22:28:11;;;;;;;3.95;2.55;;;10.00;99.90;;;;;;12500936;28;20105;-80
2023/04/10 22:34:14;;;;;;;4.85;2.90;;;9.80;99.90;;;;;;12510297;28;20085;-80
2023/04/10 22:40:16;;;;;;;4.63;2.55;;;9.90;99.90;;;;;;12504948;28;20054;-80
2023/04/10 22:46:18;;;;;;;3.60;2.25;;;9.80;99.90;;;;;;12514447;28;20664;-81
2023/04/10 22:52:20;;;;;;;6.40;2.25;;;9.70;99.90;;;;;;12505512;28;20046;-82
2023/04/10 22:58:22;;;;;;;5.57;2.13;;;9.60;99.90;;;;;;12526255;28;20057;-81
2023/04/10 23:04:23;;;;;;;3.28;1.80;;;9.60;99.90;;;;;;12530650;28;20026;-83
2023/04/10 23:10:25;;;;;;;4.55;1.80;;;9.40;99.90;;;;;;12527236;28;20054;-82
2023/04/10 23:16:27;;;;;;;4.45;1.70;;;9.40;99.90;;;;;;12486512;28;20105;-81
2023/04/10 23:22:30;;;;;;;3.33;1.70;;;9.30;99.90;;;;;;12488661;28;20038;-81
2023/04/10 23:28:32;;;;;;;6.00;2.33;;;9.30;99.90;;;;;;12473359;28;20062;-81
2023/04/10 23:34:33;;;;;;;4.68;2.10;;;9.20;99.90;;;;;;12473660;28;20129;-81
2023/04/10 23:40:35;;;;;;;3.13;1.98;;;9.20;99.90;;;;;;12483661;28;20106;-82
2023/04/10 23:46:38;;;;;;;3.92;1.85;;;9.10;99.90;;;;;;12493000;28;20038;-82
2023/04/10 23:52:41;;;;;;;4.05;1.83;;;9.10;99.90;;;;;;12491561;28;20590;-81
2023/04/10 23:58:42;;;;;;;4.72;1.75;;;9.00;99.90;;;;;;12473508;28;20065;-81
